Alpha Afovos — SZSJ — position and weather

sailwx.info

Track history (hours):
 
Tides and Currents Weather Stations Pressure Air Temp Water Temp Dewpoint Dewpoint Depression Visibility Wind Speed Wind Dir Waves Ship Positions

Alpha Afovos

Last reported at 2017-Oct-02 04:11 UTC. Time now 2017-Oct-22 04:50 UTC.
Position N 01°12' E 103°52'.
Warning: this ship's position is 20 days out of date.

Length 224 m; draft 14 m.

Type: Cargo ship. MMSI: 239802000.

Date/timePositionNaut miles runAvg speedWind from/ knotsBaromVisibWave heightAir tempDewpointWater temp
2017-Oct-02 04:11N 01°12' E 103°52'0 2.2
2017-Oct-02 03:59N 01°12' E 103°52'1 2.8
2017-Oct-02 03:30N 01°13' E 103°54'1 2.8
2017-Oct-02 03:01N 01°14' E 103°55'1 2.7
2017-Oct-02 02:29N 01°14' E 103°56'1 3.0
2017-Oct-02 02:00N 01°15' E 103°57'1 2.6
2017-Oct-02 01:27N 01°15' E 103°59'1 2.0
2017-Oct-02 01:00N 01°16' E 103°59'1 1.1
2017-Oct-02 00:30N 01°16' E 103°60'1 1.3
2017-Oct-01 23:58N 01°17' E 103°60'0 0.6
2017-Oct-01 23:13N 01°17' E 103°59'0 0.0
2017-Oct-01 22:04N 01°18' E 103°59'0 0.0
2017-Oct-01 21:39N 01°17' E 103°59'0 0.0
2017-Oct-01 21:27N 01°17' E 103°59'4127.1
2017-Oct-01 19:56N 01°19' E 103°18'511.9
2017-Oct-01 19:30N 01°16' E 103°22'611.7
2017-Oct-01 19:00N 01°13' E 103°28'611.7
2017-Oct-01 18:30N 01°12' E 103°33'511.1
2017-Oct-01 18:00N 01°11' E 103°39'510.3
2017-Oct-01 17:30N 01°09' E 103°43'4 8.3
2017-Oct-01 17:00N 01°10' E 103°47'4 8.7
2017-Oct-01 16:30N 01°12' E 103°51'5 9.2
2017-Oct-01 16:00N 01°14' E 103°55'4 8.9
2017-Oct-01 15:30N 01°16' E 103°59'1 2.7
2017-Oct-01 15:00N 01°17' E 103°58'1 2.4
2017-Oct-01 14:29N 01°18' E 103°60'0 0.0
2017-Oct-01 13:56N 01°18' E 103°60'0 0.0
2017-Oct-01 13:29N 01°18' E 103°60'0 0.1
2017-Oct-01 12:47N 01°17' E 103°60'0 0.1
2017-Oct-01 09:53N 01°18' E 103°59'0 0.0
2017-Oct-01 09:29N 01°18' E 103°59'0 0.0
2017-Oct-01 08:11N 01°17' E 103°59'0 0.1
2017-Oct-01 07:50N 01°18' E 103°59'0 0.1
2017-Oct-01 07:29N 01°18' E 103°59'0 0.1
2017-Oct-01 06:56N 01°18' E 103°59'1 2.0
2017-Oct-01 06:15N 01°17' E 103°58'1 4.4
2017-Oct-01 06:00N 01°16' E 103°58'3 5.7
2017-Oct-01 05:30N 01°16' E 104°00'4 7.4
2017-Oct-01 05:00N 01°16' E 104°04'  
Track history (hours):
 
Tides and Currents Weather Stations Pressure Air Temp Water Temp Dewpoint Dewpoint Depression Visibility Wind Speed Wind Dir Waves Ship Positions

Alpha Afovos

Last reported at 2017-Oct-02 04:11 UTC. Time now 2017-Oct-22 04:50 UTC.
Position N 01°12' E 103°52'.
Warning: this ship's position is 20 days out of date.

Length 224 m; draft 14 m.

Type: Cargo ship. MMSI: 239802000.

Date/timePositionNaut miles runAvg speedWind from/ knotsBaromVisibWave heightAir tempDewpointWater temp
2017-Oct-02 04:11N 01°12' E 103°52'0 2.2
2017-Oct-02 03:59N 01°12' E 103°52'1 2.8
2017-Oct-02 03:30N 01°13' E 103°54'1 2.8
2017-Oct-02 03:01N 01°14' E 103°55'1 2.7
2017-Oct-02 02:29N 01°14' E 103°56'1 3.0
2017-Oct-02 02:00N 01°15' E 103°57'1 2.6
2017-Oct-02 01:27N 01°15' E 103°59'1 2.0
2017-Oct-02 01:00N 01°16' E 103°59'1 1.1
2017-Oct-02 00:30N 01°16' E 103°60'1 1.3
2017-Oct-01 23:58N 01°17' E 103°60'0 0.6
2017-Oct-01 23:13N 01°17' E 103°59'0 0.0
2017-Oct-01 22:04N 01°18' E 103°59'0 0.0
2017-Oct-01 21:39N 01°17' E 103°59'0 0.0
2017-Oct-01 21:27N 01°17' E 103°59'4127.1
2017-Oct-01 19:56N 01°19' E 103°18'511.9
2017-Oct-01 19:30N 01°16' E 103°22'611.7
2017-Oct-01 19:00N 01°13' E 103°28'611.7
2017-Oct-01 18:30N 01°12' E 103°33'511.1
2017-Oct-01 18:00N 01°11' E 103°39'510.3
2017-Oct-01 17:30N 01°09' E 103°43'4 8.3
2017-Oct-01 17:00N 01°10' E 103°47'4 8.7
2017-Oct-01 16:30N 01°12' E 103°51'5 9.2
2017-Oct-01 16:00N 01°14' E 103°55'4 8.9
2017-Oct-01 15:30N 01°16' E 103°59'1 2.7
2017-Oct-01 15:00N 01°17' E 103°58'1 2.4
2017-Oct-01 14:29N 01°18' E 103°60'0 0.0
2017-Oct-01 13:56N 01°18' E 103°60'0 0.0
2017-Oct-01 13:29N 01°18' E 103°60'0 0.1
2017-Oct-01 12:47N 01°17' E 103°60'0 0.1
2017-Oct-01 09:53N 01°18' E 103°59'0 0.0
2017-Oct-01 09:29N 01°18' E 103°59'0 0.0
2017-Oct-01 08:11N 01°17' E 103°59'0 0.1
2017-Oct-01 07:50N 01°18' E 103°59'0 0.1
2017-Oct-01 07:29N 01°18' E 103°59'0 0.1
2017-Oct-01 06:56N 01°18' E 103°59'1 2.0
2017-Oct-01 06:15N 01°17' E 103°58'1 4.4
2017-Oct-01 06:00N 01°16' E 103°58'3 5.7
2017-Oct-01 05:30N 01°16' E 104°00'4 7.4
2017-Oct-01 05:00N 01°16' E 104°04'  

Dump ship's entire track history